sensor_id;sensor_type;location;lat;lon;timestamp;P1;durP1;ratioP1;P2;durP2;ratioP2
45136;SDS011;30894;51.740;19.498;2023-02-28T00:00:17;27.75;;;10.27;;
45136;SDS011;30894;51.740;19.498;2023-02-28T00:03:04;24.30;;;10.68;;
45136;SDS011;30894;51.740;19.498;2023-02-28T00:05:31;22.42;;;10.05;;
45136;SDS011;30894;51.740;19.498;2023-02-28T00:07:58;19.88;;;6.90;;
45136;SDS011;30894;51.740;19.498;2023-02-28T00:10:25;16.30;;;6.03;;
45136;SDS011;30894;51.740;19.498;2023-02-28T00:12:54;8.55;;;4.97;;
45136;SDS011;30894;51.740;19.498;2023-02-28T00:15:24;10.25;;;4.15;;
45136;SDS011;30894;51.740;19.498;2023-02-28T00:17:50;7.35;;;4.00;;
45136;SDS011;30894;51.740;19.498;2023-02-28T00:20:17;12.05;;;4.25;;
45136;SDS011;30894;51.740;19.498;2023-02-28T00:22:45;4.13;;;2.83;;
45136;SDS011;30894;51.740;19.498;2023-02-28T00:25:16;17.92;;;5.97;;
45136;SDS011;30894;51.740;19.498;2023-02-28T00:27:45;14.88;;;6.57;;
45136;SDS011;30894;51.740;19.498;2023-02-28T00:30:13;14.68;;;6.25;;
45136;SDS011;30894;51.740;19.498;2023-02-28T00:32:43;11.27;;;6.32;;
45136;SDS011;30894;51.740;19.498;2023-02-28T00:35:09;16.85;;;7.85;;
45136;SDS011;30894;51.740;19.498;2023-02-28T00:37:36;14.70;;;5.78;;
45136;SDS011;30894;51.740;19.498;2023-02-28T00:40:04;14.82;;;6.00;;
45136;SDS011;30894;51.740;19.498;2023-02-28T00:42:31;22.73;;;7.10;;
45136;SDS011;30894;51.740;19.498;2023-02-28T00:44:59;11.50;;;6.07;;
45136;SDS011;30894;51.740;19.498;2023-02-28T00:47:25;13.57;;;6.78;;
45136;SDS011;30894;51.740;19.498;2023-02-28T00:49:52;10.20;;;6.28;;
45136;SDS011;30894;51.740;19.498;2023-02-28T00:52:18;12.52;;;6.68;;
45136;SDS011;30894;51.740;19.498;2023-02-28T00:54:44;14.25;;;7.20;;
45136;SDS011;30894;51.740;19.498;2023-02-28T00:57:10;11.40;;;6.43;;
45136;SDS011;30894;51.740;19.498;2023-02-28T00:59:39;11.40;;;6.07;;
45136;SDS011;30894;51.740;19.498;2023-02-28T01:02:05;16.40;;;7.82;;
45136;SDS011;30894;51.740;19.498;2023-02-28T01:04:32;12.52;;;7.05;;
45136;SDS011;30894;51.740;19.498;2023-02-28T01:06:58;16.98;;;8.25;;
45136;SDS011;30894;51.740;19.498;2023-02-28T01:09:24;14.07;;;5.78;;
45136;SDS011;30894;51.740;19.498;2023-02-28T01:11:50;10.68;;;5.38;;
45136;SDS011;30894;51.740;19.498;2023-02-28T01:14:16;11.38;;;6.05;;
45136;SDS011;30894;51.740;19.498;2023-02-28T01:16:43;11.93;;;6.68;;
45136;SDS011;30894;51.740;19.498;2023-02-28T01:19:09;23.67;;;5.45;;
45136;SDS011;30894;51.740;19.498;2023-02-28T01:21:35;12.35;;;4.90;;
45136;SDS011;30894;51.740;19.498;2023-02-28T01:24:02;11.02;;;4.13;;
45136;SDS011;30894;51.740;19.498;2023-02-28T01:26:29;16.75;;;5.50;;
45136;SDS011;30894;51.740;19.498;2023-02-28T01:28:56;15.55;;;6.00;;
45136;SDS011;30894;51.740;19.498;2023-02-28T01:31:23;11.45;;;6.07;;
45136;SDS011;30894;51.740;19.498;2023-02-28T01:33:49;11.07;;;5.15;;
45136;SDS011;30894;51.740;19.498;2023-02-28T01:36:17;12.93;;;6.63;;
45136;SDS011;30894;51.740;19.498;2023-02-28T01:38:46;17.77;;;5.97;;
45136;SDS011;30894;51.740;19.498;2023-02-28T01:41:21;12.15;;;6.32;;
45136;SDS011;30894;51.740;19.498;2023-02-28T01:43:55;8.75;;;4.13;;
45136;SDS011;30894;51.740;19.498;2023-02-28T01:47:09;12.57;;;4.72;;
45136;SDS011;30894;51.740;19.498;2023-02-28T01:49:35;6.57;;;5.15;;
45136;SDS011;30894;51.740;19.498;2023-02-28T01:52:02;10.68;;;5.70;;
45136;SDS011;30894;51.740;19.498;2023-02-28T01:54:30;19.92;;;6.20;;
45136;SDS011;30894;51.740;19.498;2023-02-28T01:57:04;10.13;;;4.95;;
45136;SDS011;30894;51.740;19.498;2023-02-28T01:59:43;14.63;;;4.95;;
45136;SDS011;30894;51.740;19.498;2023-02-28T02:02:23;12.55;;;5.53;;
45136;SDS011;30894;51.740;19.498;2023-02-28T02:04:58;18.00;;;5.75;;
45136;SDS011;30894;51.740;19.498;2023-02-28T02:07:29;5.95;;;4.07;;
45136;SDS011;30894;51.740;19.498;2023-02-28T02:10:02;14.52;;;7.10;;
45136;SDS011;30894;51.740;19.498;2023-02-28T02:15:42;8.38;;;5.38;;
45136;SDS011;30894;51.740;19.498;2023-02-28T02:29:47;12.57;;;5.47;;
45136;SDS011;30894;51.740;19.498;2023-02-28T02:38:39;13.52;;;3.53;;
45136;SDS011;30894;51.740;19.498;2023-02-28T02:41:24;11.55;;;6.70;;
45136;SDS011;30894;51.740;19.498;2023-02-28T02:46:50;12.00;;;5.70;;
45136;SDS011;30894;51.740;19.498;2023-02-28T02:49:24;15.13;;;4.45;;
45136;SDS011;30894;51.740;19.498;2023-02-28T02:51:56;11.73;;;5.00;;
45136;SDS011;30894;51.740;19.498;2023-02-28T02:54:31;7.72;;;4.53;;
45136;SDS011;30894;51.740;19.498;2023-02-28T02:57:03;7.80;;;5.25;;
45136;SDS011;30894;51.740;19.498;2023-02-28T02:59:35;10.63;;;4.95;;
45136;SDS011;30894;51.740;19.498;2023-02-28T03:02:06;9.52;;;5.18;;
45136;SDS011;30894;51.740;19.498;2023-02-28T03:04:42;7.28;;;3.92;;
45136;SDS011;30894;51.740;19.498;2023-02-28T03:07:13;8.57;;;4.95;;
45136;SDS011;30894;51.740;19.498;2023-02-28T03:09:39;7.32;;;4.72;;
45136;SDS011;30894;51.740;19.498;2023-02-28T03:12:06;16.88;;;5.05;;
45136;SDS011;30894;51.740;19.498;2023-02-28T03:14:44;8.95;;;4.35;;
45136;SDS011;30894;51.740;19.498;2023-02-28T03:17:41;9.10;;;3.70;;
45136;SDS011;30894;51.740;19.498;2023-02-28T03:20:35;8.38;;;4.28;;
45136;SDS011;30894;51.740;19.498;2023-02-28T03:23:44;9.35;;;5.65;;
45136;SDS011;30894;51.740;19.498;2023-02-28T03:26:20;6.97;;;3.60;;
45136;SDS011;30894;51.740;19.498;2023-02-28T03:28:51;6.33;;;2.70;;
45136;SDS011;30894;51.740;19.498;2023-02-28T03:31:33;5.20;;;3.27;;
45136;SDS011;30894;51.740;19.498;2023-02-28T03:34:10;11.95;;;4.05;;
45136;SDS011;30894;51.740;19.498;2023-02-28T03:37:00;10.38;;;4.50;;
45136;SDS011;30894;51.740;19.498;2023-02-28T03:39:39;9.25;;;3.55;;
45136;SDS011;30894;51.740;19.498;2023-02-28T03:42:11;6.70;;;3.33;;
45136;SDS011;30894;51.740;19.498;2023-02-28T03:44:57;6.82;;;3.95;;
45136;SDS011;30894;51.740;19.498;2023-02-28T03:50:32;13.32;;;5.53;;
45136;SDS011;30894;51.740;19.498;2023-02-28T03:53:06;7.22;;;4.18;;
45136;SDS011;30894;51.740;19.498;2023-02-28T03:55:52;7.55;;;4.55;;
45136;SDS011;30894;51.740;19.498;2023-02-28T04:01:20;6.82;;;4.25;;
45136;SDS011;30894;51.740;19.498;2023-02-28T04:04:11;7.43;;;5.53;;
45136;SDS011;30894;51.740;19.498;2023-02-28T04:06:38;7.82;;;3.83;;
45136;SDS011;30894;51.740;19.498;2023-02-28T04:09:07;14.98;;;5.97;;
45136;SDS011;30894;51.740;19.498;2023-02-28T04:11:39;17.08;;;5.07;;
45136;SDS011;30894;51.740;19.498;2023-02-28T04:14:08;10.43;;;5.50;;
45136;SDS011;30894;51.740;19.498;2023-02-28T04:16:36;9.30;;;5.63;;
45136;SDS011;30894;51.740;19.498;2023-02-28T04:19:07;6.68;;;5.20;;
45136;SDS011;30894;51.740;19.498;2023-02-28T04:21:36;6.15;;;4.82;;
45136;SDS011;30894;51.740;19.498;2023-02-28T04:24:12;12.85;;;5.82;;
45136;SDS011;30894;51.740;19.498;2023-02-28T04:26:45;10.27;;;5.50;;
45136;SDS011;30894;51.740;19.498;2023-02-28T04:29:15;12.52;;;6.03;;
45136;SDS011;30894;51.740;19.498;2023-02-28T04:31:54;9.32;;;5.85;;
45136;SDS011;30894;51.740;19.498;2023-02-28T04:34:25;9.23;;;5.72;;
45136;SDS011;30894;51.740;19.498;2023-02-28T04:36:52;6.38;;;3.85;;
45136;SDS011;30894;51.740;19.498;2023-02-28T04:39:20;5.28;;;3.83;;
45136;SDS011;30894;51.740;19.498;2023-02-28T04:41:47;16.73;;;4.45;;
45136;SDS011;30894;51.740;19.498;2023-02-28T04:44:14;5.32;;;2.95;;
45136;SDS011;30894;51.740;19.498;2023-02-28T04:46:41;6.10;;;4.20;;
45136;SDS011;30894;51.740;19.498;2023-02-28T04:49:08;15.05;;;6.32;;
45136;SDS011;30894;51.740;19.498;2023-02-28T04:51:37;5.97;;;4.38;;
45136;SDS011;30894;51.740;19.498;2023-02-28T04:54:03;5.82;;;5.20;;
45136;SDS011;30894;51.740;19.498;2023-02-28T04:56:29;21.75;;;6.97;;
45136;SDS011;30894;51.740;19.498;2023-02-28T04:58:56;12.43;;;5.40;;
45136;SDS011;30894;51.740;19.498;2023-02-28T05:01:23;11.55;;;4.95;;
45136;SDS011;30894;51.740;19.498;2023-02-28T05:03:58;7.78;;;3.67;;
45136;SDS011;30894;51.740;19.498;2023-02-28T05:06:27;9.50;;;4.85;;
45136;SDS011;30894;51.740;19.498;2023-02-28T05:08:56;14.05;;;5.88;;
45136;SDS011;30894;51.740;19.498;2023-02-28T05:11:25;11.23;;;5.32;;
45136;SDS011;30894;51.740;19.498;2023-02-28T05:14:01;7.25;;;4.10;;
45136;SDS011;30894;51.740;19.498;2023-02-28T05:16:29;8.88;;;6.10;;
45136;SDS011;30894;51.740;19.498;2023-02-28T05:18:56;11.07;;;6.75;;
45136;SDS011;30894;51.740;19.498;2023-02-28T05:21:23;8.48;;;3.45;;
45136;SDS011;30894;51.740;19.498;2023-02-28T05:23:59;6.80;;;5.43;;
45136;SDS011;30894;51.740;19.498;2023-02-28T05:26:27;6.85;;;4.45;;
45136;SDS011;30894;51.740;19.498;2023-02-28T05:28:55;9.95;;;4.72;;
45136;SDS011;30894;51.740;19.498;2023-02-28T05:31:21;10.27;;;5.85;;
45136;SDS011;30894;51.740;19.498;2023-02-28T05:33:48;8.85;;;4.45;;
45136;SDS011;30894;51.740;19.498;2023-02-28T05:36:14;5.85;;;5.10;;
45136;SDS011;30894;51.740;19.498;2023-02-28T05:38:40;5.57;;;2.50;;
45136;SDS011;30894;51.740;19.498;2023-02-28T05:41:10;6.70;;;4.80;;
45136;SDS011;30894;51.740;19.498;2023-02-28T05:43:36;13.95;;;4.43;;
45136;SDS011;30894;51.740;19.498;2023-02-28T05:46:06;17.52;;;8.15;;
45136;SDS011;30894;51.740;19.498;2023-02-28T05:48:38;19.13;;;8.10;;
45136;SDS011;30894;51.740;19.498;2023-02-28T05:51:06;29.35;;;8.05;;
45136;SDS011;30894;51.740;19.498;2023-02-28T05:53:33;17.83;;;7.95;;
45136;SDS011;30894;51.740;19.498;2023-02-28T05:56:00;16.20;;;8.25;;
45136;SDS011;30894;51.740;19.498;2023-02-28T05:58:26;11.32;;;5.72;;
45136;SDS011;30894;51.740;19.498;2023-02-28T06:00:59;12.32;;;6.43;;
45136;SDS011;30894;51.740;19.498;2023-02-28T06:03:27;15.75;;;5.82;;
45136;SDS011;30894;51.740;19.498;2023-02-28T06:05:53;6.90;;;5.78;;
45136;SDS011;30894;51.740;19.498;2023-02-28T06:08:20;10.98;;;4.97;;
45136;SDS011;30894;51.740;19.498;2023-02-28T06:10:46;5.85;;;3.83;;
45136;SDS011;30894;51.740;19.498;2023-02-28T06:13:12;19.10;;;4.47;;
45136;SDS011;30894;51.740;19.498;2023-02-28T06:15:38;4.07;;;3.30;;
45136;SDS011;30894;51.740;19.498;2023-02-28T06:18:05;12.07;;;4.40;;
45136;SDS011;30894;51.740;19.498;2023-02-28T06:20:31;12.10;;;5.47;;
45136;SDS011;30894;51.740;19.498;2023-02-28T06:22:59;13.05;;;5.38;;
45136;SDS011;30894;51.740;19.498;2023-02-28T06:25:26;8.57;;;4.20;;
45136;SDS011;30894;51.740;19.498;2023-02-28T06:27:53;9.20;;;4.75;;
45136;SDS011;30894;51.740;19.498;2023-02-28T06:30:20;8.07;;;4.45;;
45136;SDS011;30894;51.740;19.498;2023-02-28T06:32:56;7.07;;;5.53;;
45136;SDS011;30894;51.740;19.498;2023-02-28T06:35:22;11.13;;;6.22;;
45136;SDS011;30894;51.740;19.498;2023-02-28T06:37:49;7.32;;;5.25;;
45136;SDS011;30894;51.740;19.498;2023-02-28T06:40:15;15.55;;;7.18;;
45136;SDS011;30894;51.740;19.498;2023-02-28T06:42:41;13.57;;;6.38;;
45136;SDS011;30894;51.740;19.498;2023-02-28T06:45:08;10.32;;;6.28;;
45136;SDS011;30894;51.740;19.498;2023-02-28T06:47:36;12.55;;;4.45;;
45136;SDS011;30894;51.740;19.498;2023-02-28T06:50:04;20.88;;;7.35;;
45136;SDS011;30894;51.740;19.498;2023-02-28T06:52:37;13.32;;;6.95;;
45136;SDS011;30894;51.740;19.498;2023-02-28T06:55:04;14.48;;;8.02;;
45136;SDS011;30894;51.740;19.498;2023-02-28T06:57:32;14.25;;;6.35;;
45136;SDS011;30894;51.740;19.498;2023-02-28T07:00:00;9.32;;;7.35;;
45136;SDS011;30894;51.740;19.498;2023-02-28T07:02:33;9.48;;;6.80;;
45136;SDS011;30894;51.740;19.498;2023-02-28T07:05:01;9.38;;;6.00;;
45136;SDS011;30894;51.740;19.498;2023-02-28T07:07:27;10.90;;;6.55;;
45136;SDS011;30894;51.740;19.498;2023-02-28T07:09:53;16.52;;;7.50;;
45136;SDS011;30894;51.740;19.498;2023-02-28T07:12:20;13.93;;;5.93;;
45136;SDS011;30894;51.740;19.498;2023-02-28T07:14:46;20.13;;;6.50;;
45136;SDS011;30894;51.740;19.498;2023-02-28T07:17:12;18.67;;;6.93;;
45136;SDS011;30894;51.740;19.498;2023-02-28T07:19:39;17.02;;;8.45;;
45136;SDS011;30894;51.740;19.498;2023-02-28T07:22:05;13.70;;;7.80;;
45136;SDS011;30894;51.740;19.498;2023-02-28T07:24:32;19.83;;;7.90;;
45136;SDS011;30894;51.740;19.498;2023-02-28T07:27:04;18.30;;;9.48;;
45136;SDS011;30894;51.740;19.498;2023-02-28T07:29:30;7.88;;;6.03;;
45136;SDS011;30894;51.740;19.498;2023-02-28T07:31:57;16.08;;;6.32;;
45136;SDS011;30894;51.740;19.498;2023-02-28T07:34:23;19.55;;;7.88;;
45136;SDS011;30894;51.740;19.498;2023-02-28T07:36:52;18.75;;;6.20;;
45136;SDS011;30894;51.740;19.498;2023-02-28T07:39:19;19.98;;;6.90;;
45136;SDS011;30894;51.740;19.498;2023-02-28T07:41:47;12.43;;;7.85;;
45136;SDS011;30894;51.740;19.498;2023-02-28T07:44:13;15.23;;;6.35;;
45136;SDS011;30894;51.740;19.498;2023-02-28T07:46:40;12.60;;;6.53;;
45136;SDS011;30894;51.740;19.498;2023-02-28T07:49:06;14.70;;;6.97;;
45136;SDS011;30894;51.740;19.498;2023-02-28T07:51:33;9.38;;;4.82;;
45136;SDS011;30894;51.740;19.498;2023-02-28T07:53:59;9.77;;;5.88;;
45136;SDS011;30894;51.740;19.498;2023-02-28T07:56:25;13.65;;;6.85;;
45136;SDS011;30894;51.740;19.498;2023-02-28T07:58:51;15.40;;;6.00;;
45136;SDS011;30894;51.740;19.498;2023-02-28T08:01:18;13.23;;;5.78;;
45136;SDS011;30894;51.740;19.498;2023-02-28T08:03:45;18.25;;;7.40;;
45136;SDS011;30894;51.740;19.498;2023-02-28T08:06:16;15.35;;;5.30;;
45136;SDS011;30894;51.740;19.498;2023-02-28T08:08:47;13.23;;;6.43;;
45136;SDS011;30894;51.740;19.498;2023-02-28T08:11:23;17.73;;;6.65;;
45136;SDS011;30894;51.740;19.498;2023-02-28T08:13:49;8.43;;;3.67;;
45136;SDS011;30894;51.740;19.498;2023-02-28T08:16:21;11.38;;;4.88;;
45136;SDS011;30894;51.740;19.498;2023-02-28T08:18:54;9.30;;;4.70;;
45136;SDS011;30894;51.740;19.498;2023-02-28T08:21:23;10.85;;;4.93;;
45136;SDS011;30894;51.740;19.498;2023-02-28T08:23:54;8.48;;;3.63;;
45136;SDS011;30894;51.740;19.498;2023-02-28T08:26:22;9.50;;;4.32;;
45136;SDS011;30894;51.740;19.498;2023-02-28T08:28:53;10.25;;;5.32;;
45136;SDS011;30894;51.740;19.498;2023-02-28T08:31:20;8.27;;;4.60;;
45136;SDS011;30894;51.740;19.498;2023-02-28T08:33:47;11.10;;;4.57;;
45136;SDS011;30894;51.740;19.498;2023-02-28T08:36:16;10.90;;;4.38;;
45136;SDS011;30894;51.740;19.498;2023-02-28T08:38:45;12.35;;;5.20;;
45136;SDS011;30894;51.740;19.498;2023-02-28T08:41:14;10.73;;;4.95;;
45136;SDS011;30894;51.740;19.498;2023-02-28T08:43:46;12.65;;;4.38;;
45136;SDS011;30894;51.740;19.498;2023-02-28T08:46:24;12.52;;;3.85;;
45136;SDS011;30894;51.740;19.498;2023-02-28T08:48:54;10.80;;;4.47;;
45136;SDS011;30894;51.740;19.498;2023-02-28T08:51:28;7.30;;;3.67;;
45136;SDS011;30894;51.740;19.498;2023-02-28T08:53:57;9.82;;;3.58;;
45136;SDS011;30894;51.740;19.498;2023-02-28T08:56:25;8.63;;;3.65;;
45136;SDS011;30894;51.740;19.498;2023-02-28T08:58:58;6.75;;;3.45;;
45136;SDS011;30894;51.740;19.498;2023-02-28T09:01:27;4.80;;;3.03;;
45136;SDS011;30894;51.740;19.498;2023-02-28T09:04:01;5.72;;;3.42;;
45136;SDS011;30894;51.740;19.498;2023-02-28T09:06:32;6.95;;;3.00;;
45136;SDS011;30894;51.740;19.498;2023-02-28T09:09:01;6.45;;;3.30;;
45136;SDS011;30894;51.740;19.498;2023-02-28T09:11:38;5.80;;;2.88;;
45136;SDS011;30894;51.740;19.498;2023-02-28T09:14:04;10.20;;;4.43;;
45136;SDS011;30894;51.740;19.498;2023-02-28T09:16:35;5.57;;;3.40;;
45136;SDS011;30894;51.740;19.498;2023-02-28T09:19:10;7.78;;;3.65;;
45136;SDS011;30894;51.740;19.498;2023-02-28T09:21:37;11.63;;;3.70;;
45136;SDS011;30894;51.740;19.498;2023-02-28T09:24:08;8.00;;;3.10;;
45136;SDS011;30894;51.740;19.498;2023-02-28T09:26:45;9.82;;;3.75;;
45136;SDS011;30894;51.740;19.498;2023-02-28T09:29:11;8.50;;;3.50;;
45136;SDS011;30894;51.740;19.498;2023-02-28T09:31:43;9.23;;;4.00;;
45136;SDS011;30894;51.740;19.498;2023-02-28T09:34:15;10.55;;;3.40;;
45136;SDS011;30894;51.740;19.498;2023-02-28T09:36:51;6.90;;;3.47;;
45136;SDS011;30894;51.740;19.498;2023-02-28T09:39:21;7.78;;;3.38;;
45136;SDS011;30894;51.740;19.498;2023-02-28T09:41:52;6.88;;;3.53;;
45136;SDS011;30894;51.740;19.498;2023-02-28T09:44:38;10.18;;;3.50;;
45136;SDS011;30894;51.740;19.498;2023-02-28T09:52:54;5.15;;;2.78;;
45136;SDS011;30894;51.740;19.498;2023-02-28T09:57:58;5.22;;;3.28;;
45136;SDS011;30894;51.740;19.498;2023-02-28T10:00:30;7.60;;;3.10;;
45136;SDS011;30894;51.740;19.498;2023-02-28T10:03:08;5.45;;;2.80;;
45136;SDS011;30894;51.740;19.498;2023-02-28T10:06:07;4.18;;;2.15;;
45136;SDS011;30894;51.740;19.498;2023-02-28T10:11:27;4.82;;;2.70;;
45136;SDS011;30894;51.740;19.498;2023-02-28T10:14:00;7.25;;;3.40;;
45136;SDS011;30894;51.740;19.498;2023-02-28T10:16:41;7.30;;;2.88;;
45136;SDS011;30894;51.740;19.498;2023-02-28T10:19:18;6.47;;;3.83;;
45136;SDS011;30894;51.740;19.498;2023-02-28T10:22:11;6.88;;;3.20;;
45136;SDS011;30894;51.740;19.498;2023-02-28T10:24:59;6.05;;;2.67;;
45136;SDS011;30894;51.740;19.498;2023-02-28T10:27:44;6.13;;;2.70;;
45136;SDS011;30894;51.740;19.498;2023-02-28T10:30:22;8.65;;;2.72;;
45136;SDS011;30894;51.740;19.498;2023-02-28T10:32:53;6.88;;;2.67;;
45136;SDS011;30894;51.740;19.498;2023-02-28T10:35:27;5.00;;;3.20;;
45136;SDS011;30894;51.740;19.498;2023-02-28T10:37:55;6.95;;;3.20;;
45136;SDS011;30894;51.740;19.498;2023-02-28T10:40:26;6.07;;;2.78;;
45136;SDS011;30894;51.740;19.498;2023-02-28T10:43:02;5.22;;;3.00;;
45136;SDS011;30894;51.740;19.498;2023-02-28T10:49:01;5.88;;;3.15;;
45136;SDS011;30894;51.740;19.498;2023-02-28T10:51:37;5.38;;;2.65;;
45136;SDS011;30894;51.740;19.498;2023-02-28T10:57:36;8.50;;;3.50;;
45136;SDS011;30894;51.740;19.498;2023-02-28T11:02:53;7.68;;;3.53;;
45136;SDS011;30894;51.740;19.498;2023-02-28T11:05:30;4.97;;;3.22;;
45136;SDS011;30894;51.740;19.498;2023-02-28T11:08:13;5.38;;;2.83;;
45136;SDS011;30894;51.740;19.498;2023-02-28T11:10:53;7.47;;;3.30;;
45136;SDS011;30894;51.740;19.498;2023-02-28T11:13:32;6.10;;;2.85;;
45136;SDS011;30894;51.740;19.498;2023-02-28T11:16:02;6.32;;;3.05;;
45136;SDS011;30894;51.740;19.498;2023-02-28T11:21:22;8.00;;;4.15;;
45136;SDS011;30894;51.740;19.498;2023-02-28T11:24:13;10.23;;;4.78;;
45136;SDS011;30894;51.740;19.498;2023-02-28T11:27:01;12.18;;;5.22;;
45136;SDS011;30894;51.740;19.498;2023-02-28T11:29:52;12.07;;;5.10;;
45136;SDS011;30894;51.740;19.498;2023-02-28T11:32:20;10.65;;;4.90;;
45136;SDS011;30894;51.740;19.498;2023-02-28T11:35:03;13.50;;;4.93;;
45136;SDS011;30894;51.740;19.498;2023-02-28T11:37:47;8.05;;;4.63;;
45136;SDS011;30894;51.740;19.498;2023-02-28T11:40:14;8.63;;;4.78;;
45136;SDS011;30894;51.740;19.498;2023-02-28T11:48:23;8.00;;;3.85;;
45136;SDS011;30894;51.740;19.498;2023-02-28T11:51:15;8.07;;;4.40;;
45136;SDS011;30894;51.740;19.498;2023-02-28T11:54:01;7.72;;;4.22;;
45136;SDS011;30894;51.740;19.498;2023-02-28T12:02:30;10.18;;;4.40;;
45136;SDS011;30894;51.740;19.498;2023-02-28T12:11:35;8.00;;;4.07;;
45136;SDS011;30894;51.740;19.498;2023-02-28T12:28:28;12.32;;;4.65;;
45136;SDS011;30894;51.740;19.498;2023-02-28T12:31:04;9.10;;;4.07;;
45136;SDS011;30894;51.740;19.498;2023-02-28T12:33:46;11.18;;;4.30;;
45136;SDS011;30894;51.740;19.498;2023-02-28T12:36:18;9.38;;;4.90;;
45136;SDS011;30894;51.740;19.498;2023-02-28T12:38:48;15.48;;;5.60;;
45136;SDS011;30894;51.740;19.498;2023-02-28T12:44:23;11.82;;;4.93;;
45136;SDS011;30894;51.740;19.498;2023-02-28T12:47:05;16.67;;;4.75;;
45136;SDS011;30894;51.740;19.498;2023-02-28T12:52:46;10.05;;;4.88;;
45136;SDS011;30894;51.740;19.498;2023-02-28T12:58:38;9.38;;;4.57;;
45136;SDS011;30894;51.740;19.498;2023-02-28T13:10:05;9.80;;;4.57;;
45136;SDS011;30894;51.740;19.498;2023-02-28T13:12:33;7.78;;;4.18;;
45136;SDS011;30894;51.740;19.498;2023-02-28T13:17:54;10.02;;;4.95;;
45136;SDS011;30894;51.740;19.498;2023-02-28T13:20:27;12.00;;;5.15;;
45136;SDS011;30894;51.740;19.498;2023-02-28T13:29:00;9.65;;;5.13;;
45136;SDS011;30894;51.740;19.498;2023-02-28T13:34:33;7.03;;;4.18;;
45136;SDS011;30894;51.740;19.498;2023-02-28T13:39:54;9.07;;;5.05;;
45136;SDS011;30894;51.740;19.498;2023-02-28T13:47:42;15.27;;;5.88;;
45136;SDS011;30894;51.740;19.498;2023-02-28T13:56:31;11.88;;;4.75;;
45136;SDS011;30894;51.740;19.498;2023-02-28T13:59:49;10.70;;;4.70;;
45136;SDS011;30894;51.740;19.498;2023-02-28T14:02:51;8.48;;;4.65;;
45136;SDS011;30894;51.740;19.498;2023-02-28T14:05:49;12.70;;;4.35;;
45136;SDS011;30894;51.740;19.498;2023-02-28T14:16:12;11.23;;;4.90;;
45136;SDS011;30894;51.740;19.498;2023-02-28T14:18:50;13.35;;;4.57;;
45136;SDS011;30894;51.740;19.498;2023-02-28T14:21:28;10.73;;;5.20;;
45136;SDS011;30894;51.740;19.498;2023-02-28T14:36:39;11.65;;;5.25;;
45136;SDS011;30894;51.740;19.498;2023-02-28T14:39:12;12.65;;;4.75;;
45136;SDS011;30894;51.740;19.498;2023-02-28T14:41:58;11.10;;;5.07;;
45136;SDS011;30894;51.740;19.498;2023-02-28T14:44:41;11.60;;;4.90;;
45136;SDS011;30894;51.740;19.498;2023-02-28T14:47:31;14.65;;;4.97;;
45136;SDS011;30894;51.740;19.498;2023-02-28T14:49:59;20.92;;;7.75;;
45136;SDS011;30894;51.740;19.498;2023-02-28T14:52:30;19.70;;;6.68;;
45136;SDS011;30894;51.740;19.498;2023-02-28T14:54:59;10.25;;;5.50;;
45136;SDS011;30894;51.740;19.498;2023-02-28T14:57:35;11.18;;;5.00;;
45136;SDS011;30894;51.740;19.498;2023-02-28T15:00:21;12.10;;;5.38;;
45136;SDS011;30894;51.740;19.498;2023-02-28T15:02:54;13.48;;;4.88;;
45136;SDS011;30894;51.740;19.498;2023-02-28T15:05:29;14.57;;;4.78;;
45136;SDS011;30894;51.740;19.498;2023-02-28T15:08:11;13.07;;;5.13;;
45136;SDS011;30894;51.740;19.498;2023-02-28T15:10:44;12.32;;;5.00;;
45136;SDS011;30894;51.740;19.498;2023-02-28T15:13:35;13.75;;;4.82;;
45136;SDS011;30894;51.740;19.498;2023-02-28T15:16:15;10.88;;;5.28;;
45136;SDS011;30894;51.740;19.498;2023-02-28T15:19:00;10.73;;;5.00;;
45136;SDS011;30894;51.740;19.498;2023-02-28T15:21:32;16.40;;;5.80;;
45136;SDS011;30894;51.740;19.498;2023-02-28T15:26:39;11.93;;;5.47;;
45136;SDS011;30894;51.740;19.498;2023-02-28T15:29:20;9.88;;;4.88;;
45136;SDS011;30894;51.740;19.498;2023-02-28T15:31:55;12.80;;;5.13;;
45136;SDS011;30894;51.740;19.498;2023-02-28T15:34:38;11.75;;;5.57;;
45136;SDS011;30894;51.740;19.498;2023-02-28T15:37:38;13.75;;;5.43;;
45136;SDS011;30894;51.740;19.498;2023-02-28T15:42:59;14.15;;;5.07;;
45136;SDS011;30894;51.740;19.498;2023-02-28T15:45:46;13.73;;;5.55;;
45136;SDS011;30894;51.740;19.498;2023-02-28T15:48:22;11.50;;;5.75;;
45136;SDS011;30894;51.740;19.498;2023-02-28T15:51:07;9.57;;;5.28;;
45136;SDS011;30894;51.740;19.498;2023-02-28T15:53:48;14.70;;;5.38;;
45136;SDS011;30894;51.740;19.498;2023-02-28T15:56:49;16.65;;;6.65;;
45136;SDS011;30894;51.740;19.498;2023-02-28T15:59:19;10.60;;;5.38;;
45136;SDS011;30894;51.740;19.498;2023-02-28T16:07:56;11.73;;;6.50;;
45136;SDS011;30894;51.740;19.498;2023-02-28T16:10:25;15.35;;;7.05;;
45136;SDS011;30894;51.740;19.498;2023-02-28T16:12:55;16.80;;;7.20;;
45136;SDS011;30894;51.740;19.498;2023-02-28T16:15:35;11.57;;;6.63;;
45136;SDS011;30894;51.740;19.498;2023-02-28T16:18:13;16.70;;;7.25;;
45136;SDS011;30894;51.740;19.498;2023-02-28T16:20:50;18.05;;;6.38;;
45136;SDS011;30894;51.740;19.498;2023-02-28T16:23:16;16.80;;;7.53;;
45136;SDS011;30894;51.740;19.498;2023-02-28T16:25:44;10.85;;;6.28;;
45136;SDS011;30894;51.740;19.498;2023-02-28T16:28:20;23.33;;;7.63;;
45136;SDS011;30894;51.740;19.498;2023-02-28T16:31:07;19.08;;;6.90;;
45136;SDS011;30894;51.740;19.498;2023-02-28T16:33:45;15.32;;;6.07;;
45136;SDS011;30894;51.740;19.498;2023-02-28T16:36:15;12.70;;;6.95;;
45136;SDS011;30894;51.740;19.498;2023-02-28T16:38:53;12.55;;;5.97;;
45136;SDS011;30894;51.740;19.498;2023-02-28T16:41:28;8.77;;;5.05;;
45136;SDS011;30894;51.740;19.498;2023-02-28T16:43:55;14.15;;;5.60;;
45136;SDS011;30894;51.740;19.498;2023-02-28T16:46:35;9.02;;;4.63;;
45136;SDS011;30894;51.740;19.498;2023-02-28T16:49:09;14.55;;;6.47;;
45136;SDS011;30894;51.740;19.498;2023-02-28T16:51:37;16.02;;;4.55;;
45136;SDS011;30894;51.740;19.498;2023-02-28T16:54:11;14.90;;;6.30;;
45136;SDS011;30894;51.740;19.498;2023-02-28T16:56:38;23.75;;;8.13;;
45136;SDS011;30894;51.740;19.498;2023-02-28T16:59:10;28.92;;;10.27;;
45136;SDS011;30894;51.740;19.498;2023-02-28T17:01:40;29.73;;;10.15;;
45136;SDS011;30894;51.740;19.498;2023-02-28T17:04:08;35.05;;;10.18;;
45136;SDS011;30894;51.740;19.498;2023-02-28T17:06:39;20.27;;;8.00;;
45136;SDS011;30894;51.740;19.498;2023-02-28T17:09:11;17.70;;;7.82;;
45136;SDS011;30894;51.740;19.498;2023-02-28T17:11:46;20.88;;;8.25;;
45136;SDS011;30894;51.740;19.498;2023-02-28T17:14:15;28.20;;;9.82;;
45136;SDS011;30894;51.740;19.498;2023-02-28T17:16:47;17.63;;;8.52;;
45136;SDS011;30894;51.740;19.498;2023-02-28T17:19:16;23.58;;;8.15;;
45136;SDS011;30894;51.740;19.498;2023-02-28T17:21:45;19.92;;;8.70;;
45136;SDS011;30894;51.740;19.498;2023-02-28T17:24:12;25.15;;;8.05;;
45136;SDS011;30894;51.740;19.498;2023-02-28T17:26:55;19.17;;;7.63;;
45136;SDS011;30894;51.740;19.498;2023-02-28T17:29:23;16.83;;;8.13;;
45136;SDS011;30894;51.740;19.498;2023-02-28T17:32:00;17.45;;;8.90;;
45136;SDS011;30894;51.740;19.498;2023-02-28T17:34:30;17.25;;;9.40;;
45136;SDS011;30894;51.740;19.498;2023-02-28T17:36:58;27.90;;;7.95;;
45136;SDS011;30894;51.740;19.498;2023-02-28T17:39:26;22.30;;;10.13;;